createdAt,value
2022-11-14T00:16:53.377Z,30.98
2022-11-14T00:34:42.336Z,31.55
2022-11-14T00:51:55.569Z,30.70
2022-11-14T00:54:45.184Z,33.05
2022-11-14T00:57:32.789Z,31.05
2022-11-14T01:00:23.957Z,27.92
2022-11-14T01:03:12.140Z,31.10
2022-11-14T01:06:06.443Z,31.77
2022-11-14T01:08:55.138Z,28.00
2022-11-14T01:11:44.953Z,30.88
2022-11-14T01:14:33.745Z,33.50
2022-11-14T01:17:21.662Z,32.08
2022-11-14T01:20:10.346Z,33.17
2022-11-14T01:22:57.839Z,33.17
2022-11-14T01:25:47.948Z,33.88
2022-11-14T01:30:37.338Z,33.13
2022-11-14T01:41:55.441Z,31.80
2022-11-14T01:44:56.241Z,30.40
2022-11-14T01:48:05.872Z,32.35
2022-11-14T01:51:15.260Z,31.08
2022-11-14T01:54:19.035Z,30.33
2022-11-14T01:57:29.069Z,33.78
2022-11-14T02:00:32.269Z,32.25
2022-11-14T02:03:48.006Z,31.40
2022-11-14T02:06:47.799Z,30.92
2022-11-14T02:09:50.004Z,33.38
2022-11-14T02:16:28.353Z,28.70
2022-11-14T02:19:21.827Z,33.70
2022-11-14T02:22:44.916Z,32.10
2022-11-14T02:25:52.775Z,31.63
2022-11-14T02:29:10.034Z,31.85
2022-11-14T02:32:13.323Z,33.20
2022-11-14T02:35:02.928Z,31.35
2022-11-14T02:38:20.351Z,33.95
2022-11-14T02:41:32.008Z,35.00
2022-11-14T02:49:27.659Z,33.83
2022-11-14T02:52:19.750Z,33.58
2022-11-14T02:55:17.159Z,32.83
2022-11-14T02:58:08.786Z,32.85
2022-11-14T03:07:24.200Z,30.98
2022-11-14T03:10:14.141Z,29.80
2022-11-14T03:13:07.343Z,33.00
2022-11-14T03:15:58.876Z,31.90
2022-11-14T03:18:52.548Z,29.35
2022-11-14T03:21:40.176Z,29.17
2022-11-14T03:24:29.504Z,33.95
2022-11-14T03:27:32.496Z,32.55
2022-11-14T03:30:27.142Z,34.47
2022-11-14T03:33:32.228Z,34.63
2022-11-14T03:37:11.737Z,31.23
2022-11-14T03:40:19.996Z,29.52
2022-11-14T03:43:30.442Z,27.63
2022-11-14T03:46:38.793Z,29.95
2022-11-14T03:56:15.356Z,32.70
2022-11-14T03:59:21.470Z,31.70
2022-11-14T04:02:31.287Z,31.10
2022-11-14T04:05:31.330Z,31.98
2022-11-14T04:08:48.815Z,29.77
2022-11-14T04:11:53.097Z,36.97
2022-11-14T04:15:02.011Z,33.63
2022-11-14T04:17:55.395Z,32.90
2022-11-14T04:20:46.206Z,30.52
2022-11-14T04:23:46.773Z,32.97
2022-11-14T04:30:07.333Z,32.58
2022-11-14T04:33:00.156Z,32.22
2022-11-14T04:35:54.690Z,37.60
2022-11-14T04:38:46.080Z,31.63
2022-11-14T04:41:36.498Z,30.02
2022-11-14T04:44:38.805Z,31.08
2022-11-14T04:51:00.041Z,31.30
2022-11-14T04:54:05.489Z,32.58
2022-11-14T04:56:59.500Z,33.78
2022-11-14T04:59:59.747Z,31.40
2022-11-14T05:02:58.039Z,29.92
2022-11-14T05:05:55.186Z,33.53
2022-11-14T05:09:10.109Z,33.92
2022-11-14T05:12:05.643Z,33.90
2022-11-14T05:15:13.121Z,31.67
2022-11-14T05:18:31.443Z,30.77
2022-11-14T05:21:24.829Z,32.22
2022-11-14T05:24:25.060Z,32.22
2022-11-14T05:27:20.628Z,36.05
2022-11-14T05:30:19.959Z,33.03
2022-11-14T05:33:15.174Z,35.35
2022-11-14T05:36:16.291Z,32.70
2022-11-14T05:42:31.034Z,31.38
2022-11-14T05:53:30.752Z,32.20
2022-11-14T06:04:01.492Z,32.03
2022-11-14T06:11:20.518Z,31.20
2022-11-14T06:25:54.056Z,32.00
2022-11-14T06:39:00.489Z,29.30
2022-11-14T06:56:25.912Z,30.95
2022-11-14T06:59:14.617Z,30.85
2022-11-14T07:02:10.913Z,30.23
2022-11-14T07:05:17.046Z,32.33
2022-11-14T07:08:30.666Z,31.33
2022-11-14T07:11:55.208Z,34.13
2022-11-14T07:19:12.204Z,32.53
2022-11-14T07:26:14.728Z,33.05
2022-11-14T07:29:03.977Z,32.08
2022-11-14T07:31:51.524Z,32.17
2022-11-14T07:34:39.367Z,31.88
2022-11-14T07:37:26.651Z,28.42
2022-11-14T07:40:14.610Z,29.60
2022-11-14T07:43:02.901Z,30.40
2022-11-14T07:45:52.427Z,32.38
2022-11-14T07:48:40.084Z,30.35
2022-11-14T07:51:27.811Z,31.13
2022-11-14T07:54:15.592Z,31.10
2022-11-14T07:57:03.668Z,29.45
2022-11-14T07:59:51.256Z,32.83
2022-11-14T08:02:40.577Z,33.08
2022-11-14T08:05:28.121Z,31.33
2022-11-14T08:08:16.303Z,32.95
2022-11-14T08:11:04.520Z,35.03
2022-11-14T08:13:52.410Z,32.05
2022-11-14T08:16:39.955Z,31.00
2022-11-14T08:19:29.381Z,33.15
2022-11-14T08:22:17.230Z,28.45
2022-11-14T08:25:04.990Z,30.65
2022-11-14T08:27:54.275Z,32.33
2022-11-14T08:30:42.121Z,30.95
2022-11-14T08:33:33.082Z,32.50
2022-11-14T08:36:22.307Z,30.63
2022-11-14T08:39:14.064Z,32.15
2022-11-14T08:42:02.139Z,32.28
2022-11-14T08:44:52.210Z,30.80
2022-11-14T08:47:39.940Z,34.90
2022-11-14T08:50:27.796Z,31.83
2022-11-14T08:53:16.753Z,32.05
2022-11-14T08:56:04.717Z,32.08
2022-11-14T08:58:52.620Z,32.10
2022-11-14T09:01:40.267Z,25.50
2022-11-14T09:04:27.811Z,28.45
2022-11-14T09:07:15.719Z,28.27
2022-11-14T09:10:05.517Z,30.65
2022-11-14T09:12:57.782Z,30.73
2022-11-14T09:15:46.099Z,27.65
2022-11-14T09:18:34.185Z,26.27
2022-11-14T09:21:21.660Z,28.08
2022-11-14T09:24:10.001Z,26.90
2022-11-14T09:26:59.637Z,27.23
2022-11-14T09:29:49.369Z,21.75
2022-11-14T09:32:37.392Z,27.02
2022-11-14T09:35:25.047Z,25.85
2022-11-14T09:38:13.949Z,26.65
2022-11-14T09:41:13.707Z,25.67
2022-11-14T09:44:22.024Z,25.15
2022-11-14T09:47:16.616Z,25.85
2022-11-14T09:50:14.338Z,25.77
2022-11-14T09:53:08.951Z,24.83
2022-11-14T09:55:56.701Z,29.48
2022-11-14T09:58:44.946Z,24.38
2022-11-14T10:01:45.322Z,26.25
2022-11-14T10:04:49.816Z,24.98
2022-11-14T10:07:51.100Z,26.45
2022-11-14T10:10:58.177Z,26.02
2022-11-14T10:14:33.759Z,26.35
2022-11-14T10:17:42.116Z,26.38
2022-11-14T10:20:36.581Z,25.05
2022-11-14T10:23:34.421Z,25.60
2022-11-14T10:26:30.327Z,24.88
2022-11-14T10:29:47.674Z,24.25
2022-11-14T10:32:49.559Z,23.50
2022-11-14T10:35:40.839Z,21.60
2022-11-14T10:38:34.734Z,25.67
2022-11-14T10:41:49.921Z,22.35
2022-11-14T10:44:38.080Z,23.58
2022-11-14T10:47:31.424Z,25.85
2022-11-14T10:50:23.967Z,22.85
2022-11-14T10:53:34.102Z,23.38
2022-11-14T10:56:21.585Z,23.17
2022-11-14T10:59:11.134Z,23.60
2022-11-14T11:02:00.448Z,22.77
2022-11-14T11:04:48.455Z,25.25
2022-11-14T11:08:28.282Z,22.20
2022-11-14T11:11:33.199Z,21.52
2022-11-14T11:14:22.232Z,23.77
2022-11-14T11:17:21.795Z,24.10
2022-11-14T11:20:41.627Z,22.20
2022-11-14T11:23:30.817Z,21.47
2022-11-14T11:26:24.622Z,20.90
2022-11-14T11:29:18.911Z,22.60
2022-11-14T11:32:07.004Z,21.43
2022-11-14T11:34:57.008Z,21.50
2022-11-14T11:37:49.028Z,23.47
2022-11-14T11:40:39.736Z,22.87
2022-11-14T11:43:39.231Z,25.17
2022-11-14T11:46:35.832Z,21.03
2022-11-14T11:49:38.295Z,22.27
2022-11-14T11:52:34.932Z,20.93
2022-11-14T11:55:27.090Z,19.13
2022-11-14T11:58:24.043Z,23.57
2022-11-14T12:01:13.749Z,23.57
2022-11-14T12:04:04.221Z,21.47
2022-11-14T12:07:00.081Z,22.60
2022-11-14T12:10:09.763Z,21.53
2022-11-14T12:13:32.045Z,22.80
2022-11-14T12:16:38.769Z,20.30
2022-11-14T12:19:49.782Z,22.27
2022-11-14T12:22:52.830Z,23.00
2022-11-14T12:25:58.925Z,23.90
2022-11-14T12:29:02.881Z,23.73
2022-11-14T12:31:54.439Z,22.07
2022-11-14T12:34:47.497Z,22.83
2022-11-14T12:37:38.310Z,23.77
2022-11-14T12:40:33.193Z,20.93
2022-11-14T12:43:37.337Z,22.40
2022-11-14T12:46:26.974Z,21.80
2022-11-14T12:49:40.387Z,21.77
2022-11-14T12:52:49.924Z,20.80
2022-11-14T12:56:04.533Z,21.37
2022-11-14T12:59:23.700Z,22.23
2022-11-14T13:02:39.056Z,20.00
2022-11-14T13:05:47.072Z,21.77
2022-11-14T13:09:06.675Z,19.30
2022-11-14T13:12:11.369Z,19.40
2022-11-14T13:15:33.836Z,17.93
2022-11-14T13:18:44.769Z,18.50
2022-11-14T13:21:48.580Z,18.00
2022-11-14T13:25:24.510Z,19.30
2022-11-14T13:28:48.157Z,19.30
2022-11-14T13:31:51.930Z,16.77
2022-11-14T13:34:55.983Z,19.07
2022-11-14T13:38:04.050Z,18.53
2022-11-14T13:41:06.438Z,19.43
2022-11-14T13:44:49.838Z,17.50
2022-11-14T13:48:06.157Z,17.50
2022-11-14T13:51:10.233Z,18.40
2022-11-14T13:54:18.001Z,18.83
2022-11-14T13:57:16.362Z,18.93
2022-11-14T14:00:18.462Z,16.63
2022-11-14T14:03:34.620Z,17.30
2022-11-14T14:06:41.850Z,17.07
2022-11-14T14:09:41.010Z,16.70
2022-11-14T14:12:59.657Z,18.10
2022-11-14T14:15:55.891Z,16.63
2022-11-14T14:18:53.151Z,17.73
2022-11-14T14:21:51.726Z,17.57
2022-11-14T14:24:55.371Z,16.67
2022-11-14T14:27:58.935Z,15.73
2022-11-14T14:31:06.750Z,16.50
2022-11-14T14:34:01.166Z,16.60
2022-11-14T14:36:57.719Z,17.60
2022-11-14T14:39:58.960Z,15.30
2022-11-14T14:42:49.394Z,17.67
2022-11-14T14:45:49.213Z,16.17
2022-11-14T14:48:45.942Z,16.20
2022-11-14T14:51:38.793Z,16.17
2022-11-14T14:54:32.827Z,17.80
2022-11-14T14:57:25.299Z,18.77
2022-11-14T15:00:37.895Z,19.73
2022-11-14T15:03:41.907Z,19.27
2022-11-14T15:06:40.916Z,18.70
2022-11-14T15:09:48.102Z,17.53
2022-11-14T15:12:47.801Z,19.20
2022-11-14T15:15:39.130Z,18.67
2022-11-14T15:18:34.544Z,16.70
2022-11-14T15:21:50.867Z,18.00
2022-11-14T15:24:43.179Z,16.03
2022-11-14T16:03:30.539Z,18.63
2022-11-14T16:06:55.458Z,22.85
2022-11-14T16:10:11.384Z,22.17
2022-11-14T16:13:04.318Z,21.50
2022-11-14T16:15:56.909Z,23.33
2022-11-14T16:18:47.310Z,20.50
2022-11-14T16:21:37.742Z,20.90
2022-11-14T16:24:33.986Z,27.42
2022-11-14T16:27:26.952Z,26.10
2022-11-14T16:30:20.466Z,23.33
2022-11-14T16:33:12.864Z,19.63
2022-11-14T16:36:01.545Z,22.42
2022-11-14T16:38:52.436Z,24.67
2022-11-14T16:41:42.661Z,20.50
2022-11-14T16:44:35.858Z,22.95
2022-11-14T16:47:28.988Z,22.80
2022-11-14T16:50:17.653Z,19.33
2022-11-14T16:53:05.943Z,21.05
2022-11-14T16:55:54.392Z,20.13
2022-11-14T16:58:44.188Z,21.58
2022-11-14T17:02:49.387Z,21.38
2022-11-14T17:05:45.828Z,18.98
2022-11-14T17:08:34.311Z,22.75
2022-11-14T17:11:22.482Z,21.30
2022-11-14T17:14:12.032Z,22.00
2022-11-14T17:17:03.425Z,21.73
2022-11-14T17:19:52.307Z,22.10
2022-11-14T17:22:40.507Z,19.92
2022-11-14T17:25:29.209Z,20.95
2022-11-14T17:28:16.980Z,20.63
2022-11-14T17:31:10.792Z,21.65
2022-11-14T17:34:01.383Z,21.98
2022-11-14T17:36:49.244Z,20.67
2022-11-14T17:39:37.026Z,22.50
2022-11-14T17:42:25.230Z,20.98
2022-11-14T17:45:12.807Z,21.02
2022-11-14T17:48:02.068Z,20.80
2022-11-14T17:50:50.206Z,21.45
2022-11-14T17:53:39.337Z,20.30
2022-11-14T17:56:28.188Z,20.38
2022-11-14T17:59:16.028Z,21.15
2022-11-14T18:02:03.957Z,19.13
2022-11-14T18:04:53.036Z,18.90
2022-11-14T18:07:40.730Z,22.90
2022-11-14T18:10:28.618Z,21.13
2022-11-14T18:13:16.349Z,21.80
2022-11-14T18:16:12.324Z,19.77
2022-11-14T18:19:00.448Z,21.85
2022-11-14T18:21:53.770Z,21.80
2022-11-14T18:24:47.376Z,21.40
2022-11-14T18:27:35.957Z,23.48
2022-11-14T18:33:31.787Z,21.63
2022-11-14T18:36:21.755Z,21.70
2022-11-14T18:39:10.860Z,23.27
2022-11-14T18:42:01.089Z,23.63
2022-11-14T18:48:18.071Z,20.42
2022-11-14T18:51:09.204Z,21.10
2022-11-14T18:53:59.488Z,20.70
2022-11-14T18:56:48.630Z,22.77
2022-11-14T18:59:39.166Z,22.17
2022-11-14T19:02:27.420Z,20.33
2022-11-14T19:05:17.504Z,22.05
2022-11-14T19:08:15.997Z,20.30
2022-11-14T19:11:07.497Z,21.67
2022-11-14T19:14:03.207Z,20.98
2022-11-14T19:16:53.841Z,24.88
2022-11-14T19:19:42.983Z,19.70
2022-11-14T19:22:34.100Z,21.35
2022-11-14T19:25:24.808Z,22.42
2022-11-14T19:28:12.361Z,22.23
2022-11-14T19:31:07.363Z,21.23
2022-11-14T19:33:55.145Z,20.55
2022-11-14T19:36:59.477Z,22.00
2022-11-14T19:39:47.983Z,20.85
2022-11-14T19:42:35.079Z,22.05
2022-11-14T19:45:24.082Z,24.10
2022-11-14T19:48:13.342Z,20.85
2022-11-14T19:51:03.337Z,22.10
2022-11-14T19:53:50.837Z,22.10
2022-11-14T19:56:39.113Z,22.35
2022-11-14T19:59:28.781Z,21.42
2022-11-14T20:02:17.063Z,23.98
2022-11-14T20:05:06.819Z,23.88
2022-11-14T20:07:55.953Z,26.52
2022-11-14T20:10:48.581Z,22.52
2022-11-14T20:13:38.959Z,26.77
2022-11-14T20:16:29.213Z,25.35
2022-11-14T20:19:17.122Z,22.02
2022-11-14T20:22:06.686Z,24.50
2022-11-14T20:24:54.531Z,27.13
2022-11-14T20:27:42.153Z,26.15
2022-11-14T20:30:30.428Z,22.70
2022-11-14T20:33:17.733Z,23.38
2022-11-14T20:36:08.774Z,21.52
2022-11-14T20:38:59.442Z,26.08
2022-11-14T20:41:47.212Z,23.10
2022-11-14T20:44:35.197Z,25.25
2022-11-14T20:47:23.486Z,24.08
2022-11-14T20:50:11.698Z,21.95
2022-11-14T20:52:59.784Z,23.58
2022-11-14T20:55:54.671Z,22.02
2022-11-14T20:58:43.327Z,22.73
2022-11-14T21:01:30.892Z,21.00
2022-11-14T21:04:18.999Z,24.83
2022-11-14T21:07:07.022Z,21.60
2022-11-14T21:10:08.714Z,23.10
2022-11-14T21:13:14.783Z,22.95
2022-11-14T21:16:04.160Z,22.60
2022-11-14T21:18:54.816Z,24.27
2022-11-14T21:21:42.619Z,22.80
2022-11-14T21:24:30.302Z,25.63
2022-11-14T21:27:18.100Z,26.15
2022-11-14T21:30:08.588Z,23.13
2022-11-14T21:32:56.370Z,24.67
2022-11-14T21:35:43.510Z,25.45
2022-11-14T21:38:34.134Z,25.20
2022-11-14T21:41:24.732Z,23.80
2022-11-14T21:44:16.532Z,24.45
2022-11-14T21:47:05.836Z,25.73
2022-11-14T21:50:00.857Z,22.40
2022-11-14T21:52:48.904Z,23.05
2022-11-14T21:55:36.612Z,25.10
2022-11-14T21:58:24.514Z,23.88
2022-11-14T22:01:15.954Z,25.98
2022-11-14T22:04:12.915Z,26.73
2022-11-14T22:07:05.547Z,23.67
2022-11-14T22:09:52.993Z,24.98
2022-11-14T22:12:40.931Z,26.02
2022-11-14T22:15:28.182Z,25.75
2022-11-14T22:18:16.239Z,26.08
2022-11-14T22:21:05.856Z,24.95
2022-11-14T22:23:54.675Z,24.27
2022-11-14T22:26:42.430Z,24.17
2022-11-14T22:29:30.323Z,25.38
2022-11-14T22:32:17.824Z,24.20
2022-11-14T22:35:06.890Z,25.92
2022-11-14T22:37:55.752Z,24.90
2022-11-14T22:40:43.287Z,22.48
2022-11-14T22:43:32.350Z,26.88
2022-11-14T22:46:24.208Z,26.52
2022-11-14T22:49:11.609Z,27.17
2022-11-14T22:51:59.242Z,26.25
2022-11-14T22:54:48.259Z,24.23
2022-11-14T22:57:36.105Z,25.13
2022-11-14T23:00:25.453Z,27.13
2022-11-14T23:03:19.122Z,25.20
2022-11-14T23:06:12.725Z,23.77
2022-11-14T23:09:01.684Z,26.50
2022-11-14T23:11:51.021Z,32.03
2022-11-14T23:14:38.343Z,30.58
2022-11-14T23:17:25.823Z,27.30
2022-11-14T23:20:16.431Z,26.17
2022-11-14T23:23:04.216Z,26.02
2022-11-14T23:25:51.686Z,27.27
2022-11-14T23:28:40.991Z,23.70
2022-11-14T23:31:29.171Z,29.23
2022-11-14T23:34:16.633Z,25.70
2022-11-14T23:37:04.143Z,26.42
2022-11-14T23:39:51.807Z,26.33
2022-11-14T23:42:39.417Z,27.77
2022-11-14T23:45:28.563Z,28.00
2022-11-14T23:48:16.644Z,28.30
2022-11-14T23:51:04.072Z,23.42
2022-11-14T23:53:52.083Z,27.60
2022-11-14T23:56:39.600Z,29.98
2022-11-14T23:59:26.961Z,27.42
